Time;durP1;ratioP1;P1;durP2;ratioP2;P2;SDS_P1;SDS_P2;PMS_P1;PMS_P2;Temp;Humidity;BMP_temperature;BMP_pressure;BME280_temperature;BME280_humidity;BME280_pressure;Samples;Min_cycle;Max_cycle;Signal;HPM_P1;HPM_P2
2024/01/04 00:01:16;;;;;;;16.43;15.60;;;;;;;2.87;100.00;98652.94;5051008;28;20784;-36
2024/01/04 00:03:44;;;;;;;19.63;18.47;;;;;;;2.83;100.00;98646.47;5050786;28;20915;-36
2024/01/04 00:06:12;;;;;;;17.67;16.73;;;;;;;2.83;100.00;98650.91;5051562;28;21200;-37
2024/01/04 00:08:39;;;;;;;17.63;16.67;;;;;;;2.89;100.00;98658.03;5048459;28;21056;-37
2024/01/04 00:11:07;;;;;;;16.90;16.10;;;;;;;2.88;100.00;98653.75;5051123;28;20518;-37
2024/01/04 00:13:35;;;;;;;18.00;17.07;;;;;;;2.96;100.00;98658.84;5049952;28;20530;-36
2024/01/04 00:16:09;;;;;;;15.90;15.20;;;;;;;2.88;100.00;98664.28;5049346;28;20587;-39
2024/01/04 00:18:37;;;;;;;16.93;16.13;;;;;;;2.92;100.00;98657.63;5047920;28;20549;-37
2024/01/04 00:21:06;;;;;;;16.70;15.90;;;;;;;2.93;100.00;98661.91;5048519;28;20446;-36
2024/01/04 00:23:35;;;;;;;16.00;15.30;;;;;;;2.90;100.00;98664.94;5048177;28;20466;-38
2024/01/04 00:26:03;;;;;;;16.67;15.80;;;;;;;2.92;100.00;98663.72;5048187;28;20435;-36
2024/01/04 00:28:31;;;;;;;16.00;15.30;;;;;;;2.86;100.00;98671.59;5047201;28;20459;-36
2024/01/04 00:30:58;;;;;;;17.23;16.30;;;;;;;2.83;100.00;98685.13;5048377;28;20483;-38
2024/01/04 00:33:28;;;;;;;16.47;15.67;;;;;;;2.84;100.00;98684.94;5048492;28;20466;-36
2024/01/04 00:35:56;;;;;;;16.80;16.00;;;;;;;2.68;100.00;98680.03;5049244;28;20495;-37
2024/01/04 00:38:24;;;;;;;16.50;15.80;;;;;;;2.65;100.00;98681.22;5049907;28;21057;-36
2024/01/04 00:40:52;;;;;;;15.60;14.80;;;;;;;2.60;100.00;98691.50;5041986;28;20459;-37
2024/01/04 00:43:20;;;;;;;15.50;14.90;;;;;;;2.55;100.00;98699.19;5050720;28;20643;-37
2024/01/04 00:45:48;;;;;;;15.90;15.20;;;;;;;2.54;100.00;98700.19;5050706;28;21028;-37
2024/01/04 00:48:15;;;;;;;15.70;15.10;;;;;;;2.52;100.00;98704.03;5048181;28;21016;-37
2024/01/04 00:50:45;;;;;;;16.17;15.27;;;;;;;2.45;100.00;98703.97;5048337;28;20493;-39
2024/01/04 00:53:13;;;;;;;15.60;14.90;;;;;;;2.47;100.00;98716.97;5049572;28;20810;-37
2024/01/04 00:55:41;;;;;;;14.80;14.30;;;;;;;2.50;100.00;98720.00;5048286;28;20467;-36
2024/01/04 00:58:08;;;;;;;15.37;14.47;;;;;;;2.46;100.00;98721.41;5049600;28;20512;-37
2024/01/04 01:00:36;;;;;;;15.03;14.50;;;;;;;2.40;100.00;98727.44;5050100;28;20466;-38
2024/01/04 01:03:04;;;;;;;14.10;13.50;;;;;;;2.37;100.00;98730.44;5050858;28;20435;-36
2024/01/04 01:05:32;;;;;;;15.30;14.70;;;;;;;2.32;100.00;98730.22;5050031;28;20435;-37
2024/01/04 01:08:02;;;;;;;14.67;14.03;;;;;;;2.32;100.00;98732.84;5050002;28;20463;-37
2024/01/04 01:10:31;;;;;;;14.77;14.27;;;;;;;2.27;100.00;98734.44;5049203;28;20447;-36
2024/01/04 01:12:59;;;;;;;15.30;14.80;;;;;;;2.27;100.00;98739.69;5043564;28;20815;-36
2024/01/04 01:15:27;;;;;;;21.43;15.00;;;;;;;2.31;100.00;98741.75;5044367;28;20998;-42
2024/01/04 01:17:55;;;;;;;14.43;13.90;;;;;;;2.27;100.00;98744.97;5035157;28;20510;-36
2024/01/04 01:20:23;;;;;;;14.63;14.10;;;;;;;2.20;100.00;98755.44;5027963;28;20514;-37
2024/01/04 01:22:51;;;;;;;13.60;13.20;;;;;;;2.13;100.00;98747.47;5030458;28;20534;-36
2024/01/04 01:25:20;;;;;;;14.37;13.87;;;;;;;2.09;100.00;98756.75;5032284;28;20468;-36
2024/01/04 01:27:48;;;;;;;14.27;13.87;;;;;;;2.12;100.00;98751.09;5031307;28;20460;-36
2024/01/04 01:30:15;;;;;;;13.97;13.50;;;;;;;2.09;100.00;98769.88;5031725;28;20456;-37
2024/01/04 01:32:43;;;;;;;13.93;13.53;;;;;;;2.08;100.00;98770.91;5031510;28;20527;-36
2024/01/04 01:35:11;;;;;;;14.60;14.10;;;;;;;2.03;100.00;98769.88;5031992;28;20498;-37
2024/01/04 01:37:39;;;;;;;14.40;13.90;;;;;;;2.03;100.00;98783.78;5031201;28;20847;-40
2024/01/04 01:40:08;;;;;;;14.43;13.90;;;;;;;2.03;100.00;98788.25;5031371;28;20456;-40
2024/01/04 01:42:37;;;;;;;15.17;14.67;;;;;;;2.05;100.00;98794.13;5031654;28;20439;-36
2024/01/04 01:45:06;;;;;;;14.70;14.20;;;;;;;1.97;100.00;98787.19;5031737;28;20475;-42
2024/01/04 01:47:34;;;;;;;15.80;15.20;;;;;;;1.96;100.00;98797.91;5030886;28;21065;-37
2024/01/04 01:50:02;;;;;;;15.10;14.60;;;;;;;1.95;100.00;98801.50;5030849;28;20464;-37
2024/01/04 01:52:30;;;;;;;15.73;15.13;;;;;;;1.89;100.00;98807.53;5031560;28;20462;-37
2024/01/04 01:54:58;;;;;;;15.23;14.73;;;;;;;1.85;100.00;98812.34;5031756;28;20435;-37
2024/01/04 01:57:27;;;;;;;14.83;14.03;;;;;;;1.81;100.00;98823.44;5030635;28;20471;-36
2024/01/04 01:59:56;;;;;;;15.20;14.60;;;;;;;1.80;100.00;98819.97;5031474;28;21031;-40
2024/01/04 02:02:24;;;;;;;15.83;15.13;;;;;;;1.80;100.00;98824.41;5031567;28;20534;-36
2024/01/04 02:04:52;;;;;;;15.57;14.97;;;;;;;1.73;100.00;98824.38;5031069;28;20454;-37
2024/01/04 02:07:20;;;;;;;15.70;15.20;;;;;;;1.68;100.00;98840.69;5030657;28;20513;-38
2024/01/04 02:09:49;;;;;;;16.00;15.40;;;;;;;1.67;100.00;98841.66;5030595;28;20464;-36
2024/01/04 02:12:16;;;;;;;16.10;15.50;;;;;;;1.67;100.00;98849.56;5031518;28;20446;-37
2024/01/04 02:14:44;;;;;;;17.90;17.20;;;;;;;1.57;100.00;98853.50;5030904;28;20472;-37
2024/01/04 02:17:13;;;;;;;19.20;18.40;;;;;;;1.53;100.00;98863.53;5031221;28;21056;-37
2024/01/04 02:19:42;;;;;;;19.90;19.03;;;;;;;1.47;100.00;98876.59;5030885;28;20463;-37
2024/01/04 02:22:10;;;;;;;21.20;20.30;;;;;;;1.43;100.00;98865.66;5032458;28;20437;-38
2024/01/04 02:24:40;;;;;;;21.97;20.87;;;;;;;1.44;100.00;98871.72;5041686;28;20467;-40
2024/01/04 02:27:08;;;;;;;19.80;18.90;;;;;;;1.47;100.00;98872.16;5033157;28;20466;-38
2024/01/04 02:29:35;;;;;;;19.27;18.50;;;;;;;1.44;100.00;98880.41;5033335;28;20862;-37
2024/01/04 02:32:04;;;;;;;17.43;16.73;;;;;;;1.45;100.00;98887.31;5033339;28;20436;-36
2024/01/04 02:34:32;;;;;;;16.77;16.17;;;;;;;1.35;100.00;98894.63;5033061;28;20543;-36
2024/01/04 02:37:00;;;;;;;17.47;16.67;;;;;;;1.35;100.00;98897.25;5032942;28;20468;-39
2024/01/04 02:39:28;;;;;;;17.90;17.07;;;;;;;1.36;100.00;98905.97;5030550;28;20870;-38
2024/01/04 02:41:57;;;;;;;17.80;17.10;;;;;;;1.37;100.00;98905.78;5032880;28;20486;-37
2024/01/04 02:44:25;;;;;;;18.63;17.93;;;;;;;1.35;100.00;98917.44;5033166;28;20498;-37
2024/01/04 02:46:52;;;;;;;19.70;18.80;;;;;;;1.26;100.00;98918.53;5032175;28;20436;-39
2024/01/04 02:49:20;;;;;;;23.53;22.43;;;;;;;1.28;100.00;98930.53;5029528;28;20474;-41
2024/01/04 02:51:48;;;;;;;23.60;22.50;;;;;;;1.23;100.00;98929.41;5029513;28;20439;-36
2024/01/04 02:54:16;;;;;;;24.67;23.47;;;;;;;1.16;100.00;98947.72;5030736;28;20508;-39
2024/01/04 02:56:44;;;;;;;32.20;30.70;;;;;;;1.11;100.00;98943.00;5032723;28;20472;-39
2024/01/04 02:59:14;;;;;;;35.97;34.07;;;;;;;1.04;100.00;98949.97;5029152;28;20538;-36
2024/01/04 03:01:45;;;;;;;35.27;33.53;;;;;;;0.93;100.00;98941.69;5041517;28;20435;-39
2024/01/04 03:04:13;;;;;;;36.27;34.47;;;;;;;0.89;100.00;98958.81;5052394;28;20440;-39
2024/01/04 03:06:41;;;;;;;38.00;36.20;;;;;;;0.81;100.00;98966.72;5052093;28;20481;-39
2024/01/04 03:09:09;;;;;;;36.63;34.83;;;;;;;0.70;100.00;98983.72;5034850;28;20498;-40
2024/01/04 03:11:36;;;;;;;87.33;82.93;;;;;;;0.62;100.00;98980.34;5028824;28;20433;-37
2024/01/04 03:14:05;;;;;;;276.10;260.80;;;;;;;0.57;100.00;99007.91;5029287;28;20468;-37
2024/01/04 03:16:34;;;;;;;312.83;294.33;;;;;;;0.54;100.00;98997.78;5040217;28;20802;-36
2024/01/04 03:19:02;;;;;;;290.00;273.00;;;;;;;0.54;100.00;99016.13;5039073;28;20490;-36
2024/01/04 03:21:30;;;;;;;256.43;242.03;;;;;;;0.46;100.00;99034.56;5033835;28;20523;-37
2024/01/04 03:23:58;;;;;;;215.67;203.97;;;;;;;0.44;100.00;99026.06;5028317;28;20522;-35
2024/01/04 03:26:25;;;;;;;190.77;180.53;;;;;;;0.43;100.00;99034.91;5045469;28;20803;-37
2024/01/04 03:28:53;;;;;;;304.20;286.30;;;;;;;0.44;100.00;99033.09;5031636;28;20483;-35
2024/01/04 03:31:21;;;;;;;161.97;153.73;;;;;;;0.40;100.00;99043.09;5031955;28;20927;-37
2024/01/04 03:33:51;;;;;;;149.00;141.50;;;;;;;0.31;100.00;99059.88;5031877;28;20440;-36
2024/01/04 03:36:19;;;;;;;104.93;99.43;;;;;;;0.26;100.00;99051.72;5029036;28;20440;-36
2024/01/04 03:38:48;;;;;;;105.77;100.47;;;;;;;0.21;100.00;99085.47;5030474;28;20922;-37
2024/01/04 03:41:16;;;;;;;89.63;84.83;;;;;;;0.15;100.00;99069.63;5029214;28;21221;-36
2024/01/04 03:43:44;;;;;;;97.97;92.87;;;;;;;0.16;100.00;99073.88;5037033;28;20482;-37
2024/01/04 03:46:11;;;;;;;104.60;99.40;;;;;;;0.10;100.00;99085.03;5029251;28;20527;-41
2024/01/04 03:48:42;;;;;;;128.23;121.67;;;;;;;0.07;100.00;99065.22;5046480;28;20469;-39
2024/01/04 03:51:12;;;;;;;109.33;103.63;;;;;;;-0.02;100.00;99109.00;5038177;28;20498;-39
2024/01/04 03:53:40;;;;;;;79.83;75.63;;;;;;;0.02;100.00;99108.66;5030123;28;20803;-39
2024/01/04 03:56:09;;;;;;;70.03;66.10;;;;;;;-0.01;100.00;99107.19;5049590;28;20438;-38
2024/01/04 03:58:37;;;;;;;82.93;78.43;;;;;;;-0.11;100.00;99122.28;5039258;28;20469;-36
2024/01/04 04:01:04;;;;;;;70.03;65.93;;;;;;;-0.09;100.00;99113.28;5039785;28;20463;-37
2024/01/04 04:03:32;;;;;;;63.00;59.60;;;;;;;-0.10;100.00;99118.69;5049299;28;21237;-36
2024/01/04 04:06:05;;;;;;;42.90;40.50;;;;;;;-0.19;100.00;99148.50;5045008;28;20440;-37
2024/01/04 04:08:35;;;;;;;37.80;35.80;;;;;;;-0.21;100.00;99163.59;5029679;28;20538;-36
2024/01/04 04:11:03;;;;;;;32.50;30.80;;;;;;;-0.19;100.00;99157.19;5027964;28;20440;-37
2024/01/04 04:13:32;;;;;;;31.03;29.53;;;;;;;-0.23;100.00;99157.69;5036872;28;20447;-36
2024/01/04 04:16:02;;;;;;;25.50;24.27;;;;;;;-0.29;100.00;99179.28;5031040;28;20769;-36
2024/01/04 04:18:29;;;;;;;23.27;22.07;;;;;;;-0.29;100.00;99193.22;5028635;28;20801;-40
2024/01/04 04:20:57;;;;;;;17.40;16.70;;;;;;;-0.37;100.00;99179.31;5028212;28;20548;-36
2024/01/04 04:23:25;;;;;;;15.87;15.10;;;;;;;-0.37;100.00;99193.22;5028504;28;20447;-37
2024/01/04 04:25:55;;;;;;;15.43;14.83;;;;;;;-0.37;100.00;99198.47;5032038;28;20852;-35
2024/01/04 04:28:23;;;;;;;16.30;15.60;;;;;;;-0.38;100.00;99212.53;5048722;28;20463;-37
2024/01/04 04:30:51;;;;;;;16.13;15.47;;;;;;;-0.33;100.00;99243.50;5029986;28;20526;-37
2024/01/04 04:33:19;;;;;;;16.63;15.93;;;;;;;-0.40;100.00;99229.41;5030852;28;20440;-39
2024/01/04 04:35:47;;;;;;;15.90;15.20;;;;;;;-0.44;100.00;99239.38;5027065;28;20571;-39
2024/01/04 04:38:27;;;;;;;16.60;15.90;;;;;;;-0.43;100.00;99234.97;5028255;28;20464;-39
2024/01/04 04:40:57;;;;;;;15.00;14.40;;;;;;;-0.41;100.00;99249.53;5029070;28;20459;-39
2024/01/04 04:43:26;;;;;;;16.40;15.70;;;;;;;-0.40;100.00;99255.59;5029886;28;20872;-37
2024/01/04 04:45:55;;;;;;;15.77;14.90;;;;;;;-0.40;100.00;99232.84;5028837;28;20475;-36
2024/01/04 04:48:23;;;;;;;15.13;14.50;;;;;;;-0.39;100.00;99270.34;5028743;28;20456;-43
2024/01/04 04:50:53;;;;;;;14.80;14.20;;;;;;;-0.44;100.00;99269.97;5030563;28;20490;-37
2024/01/04 04:53:21;;;;;;;14.90;14.40;;;;;;;-0.41;100.00;99286.19;5028974;28;20447;-37
2024/01/04 04:55:50;;;;;;;14.83;14.13;;;;;;;-0.40;100.00;99287.00;5031212;28;20854;-37
2024/01/04 04:58:19;;;;;;;13.90;13.40;;;;;;;-0.35;100.00;99297.81;5031244;28;20491;-39
2024/01/04 05:00:47;;;;;;;15.00;14.10;;;;;;;-0.45;100.00;99299.78;5033076;28;20538;-43
2024/01/04 05:03:15;;;;;;;14.67;14.07;;;;;;;-0.52;100.00;99304.00;5031407;28;20436;-36
2024/01/04 05:05:43;;;;;;;14.27;13.57;;;;;;;-0.50;100.00;99336.09;5031805;28;20440;-42
2024/01/04 05:08:11;;;;;;;13.90;13.20;;;;;;;-0.51;100.00;99324.00;5031985;28;21210;-39
2024/01/04 05:10:38;;;;;;;14.70;13.90;;;;;;;-0.50;100.00;99343.94;5032642;28;20823;-43
2024/01/04 05:13:06;;;;;;;14.10;13.50;;;;;;;-0.46;100.00;99340.03;5041278;28;20444;-36
2024/01/04 05:15:35;;;;;;;14.20;13.57;;;;;;;-0.50;100.00;99359.66;5031986;28;20479;-37
2024/01/04 05:18:04;;;;;;;13.63;13.07;;;;;;;-0.54;100.00;99353.13;5031670;28;20467;-36
2024/01/04 05:20:33;;;;;;;13.93;13.33;;;;;;;-0.57;100.00;99370.75;5034242;28;21043;-41
2024/01/04 05:23:00;;;;;;;13.30;12.80;;;;;;;-0.57;100.00;99385.69;5034125;28;20482;-39
2024/01/04 05:25:28;;;;;;;13.30;12.90;;;;;;;-0.54;100.00;99379.31;5030575;28;20480;-42
2024/01/04 05:27:56;;;;;;;13.30;12.80;;;;;;;-0.50;100.00;99377.97;5032361;28;20551;-39
2024/01/04 05:30:23;;;;;;;13.13;12.63;;;;;;;-0.54;100.00;99395.00;5032355;28;20455;-42
2024/01/04 05:32:53;;;;;;;13.13;12.60;;;;;;;-0.58;100.00;99397.13;5032607;28;20440;-39
2024/01/04 05:35:22;;;;;;;12.30;11.87;;;;;;;-0.51;100.00;99423.50;5046348;28;20440;-36
2024/01/04 05:37:50;;;;;;;12.80;12.20;;;;;;;-0.56;100.00;99432.63;5039289;28;20494;-40
2024/01/04 05:40:18;;;;;;;13.47;12.50;;;;;;;-0.55;100.00;99441.31;5044144;28;20930;-40
2024/01/04 05:42:45;;;;;;;13.77;12.97;;;;;;;-0.65;100.00;99443.22;5044759;28;20994;-41
2024/01/04 05:45:13;;;;;;;12.80;12.40;;;;;;;-0.64;100.00;99453.56;5030866;28;20435;-38
2024/01/04 05:47:41;;;;;;;13.27;12.67;;;;;;;-0.70;100.00;99458.59;5030921;28;20478;-37
2024/01/04 05:50:11;;;;;;;13.43;12.80;;;;;;;-0.70;100.00;99463.81;5031425;28;20452;-39
2024/01/04 05:52:39;;;;;;;13.30;12.60;;;;;;;-0.74;100.00;99484.25;5034015;28;21163;-39
2024/01/04 05:55:07;;;;;;;13.80;13.20;;;;;;;-0.74;100.00;99499.13;5034211;28;20494;-42
2024/01/04 05:57:35;;;;;;;13.90;13.17;;;;;;;-0.71;100.00;99504.88;5030914;28;21053;-36
2024/01/04 06:00:04;;;;;;;14.57;13.87;;;;;;;-0.79;100.00;99519.72;5033211;28;20506;-40
2024/01/04 06:02:32;;;;;;;14.80;14.10;;;;;;;-0.70;100.00;99521.41;5033891;28;20440;-39
2024/01/04 06:05:00;;;;;;;15.47;14.77;;;;;;;-0.76;100.00;99529.88;5030576;28;20524;-37
2024/01/04 06:07:30;;;;;;;14.23;13.70;;;;;;;-0.79;100.00;99533.63;5030773;28;20464;-37
2024/01/04 06:09:58;;;;;;;15.40;14.70;;;;;;;-0.74;100.00;99549.69;5033038;28;20486;-37
2024/01/04 06:12:26;;;;;;;13.57;12.97;;;;;;;-0.73;100.00;99550.50;5046398;28;20878;-37
2024/01/04 06:14:54;;;;;;;14.53;13.73;;;;;;;-0.81;100.00;99566.19;5039219;28;20440;-38
2024/01/04 06:17:22;;;;;;;16.07;15.17;;;;;;;-0.79;100.00;99578.13;5044804;28;20495;-36
2024/01/04 06:19:50;;;;;;;14.77;14.13;;;;;;;-0.75;100.00;99570.81;5049777;28;20482;-44
2024/01/04 06:22:18;;;;;;;14.90;14.20;;;;;;;-0.70;100.00;99579.84;5049694;28;20525;-37
2024/01/04 06:24:47;;;;;;;14.27;13.67;;;;;;;-0.71;100.00;99569.50;5033932;28;20440;-36
2024/01/04 06:27:15;;;;;;;14.73;14.13;;;;;;;-0.71;100.00;99604.34;5032954;28;20479;-37
2024/01/04 06:29:44;;;;;;;14.60;13.80;;;;;;;-0.81;100.00;99614.13;5041408;28;20493;-37
2024/01/04 06:32:12;;;;;;;14.93;14.33;;;;;;;-0.82;100.00;99617.69;5040963;28;20432;-36
2024/01/04 06:34:41;;;;;;;15.20;14.50;;;;;;;-0.73;100.00;99623.81;5051344;28;20949;-37
2024/01/04 06:37:09;;;;;;;14.90;14.30;;;;;;;-0.72;100.00;99636.72;5029671;28;20460;-40
2024/01/04 06:39:37;;;;;;;14.30;13.80;;;;;;;-0.70;100.00;99652.31;5032197;28;20471;-40
2024/01/04 06:42:07;;;;;;;14.80;14.10;;;;;;;-0.67;100.00;99641.53;5042835;28;20511;-36
2024/01/04 06:44:35;;;;;;;14.40;13.90;;;;;;;-0.72;100.00;99649.81;5035623;28;20463;-37
2024/01/04 06:47:14;;;;;;;15.10;14.40;;;;;;;-0.77;100.00;99659.09;5032372;28;20466;-39
2024/01/04 06:49:43;;;;;;;13.90;13.30;;;;;;;-0.84;100.00;99681.63;5045336;28;20451;-41
2024/01/04 06:52:11;;;;;;;16.13;15.43;;;;;;;-0.80;100.00;99680.34;5052792;28;20758;-39
2024/01/04 06:54:39;;;;;;;16.47;15.77;;;;;;;-0.83;100.00;99720.72;5042686;28;20478;-42
2024/01/04 06:57:08;;;;;;;16.00;15.40;;;;;;;-0.89;100.00;99676.84;5031445;28;20470;-37
2024/01/04 06:59:36;;;;;;;16.03;15.13;;;;;;;-0.90;100.00;99697.94;5050521;28;20475;-39
2024/01/04 07:02:05;;;;;;;15.90;15.27;;;;;;;-0.96;100.00;99701.97;5042553;28;20446;-38
2024/01/04 07:04:33;;;;;;;16.20;15.40;;;;;;;-0.95;100.00;99695.75;5052669;28;20510;-38
2024/01/04 07:07:01;;;;;;;15.90;15.20;;;;;;;-0.89;100.00;99725.72;5046861;28;20443;-37
2024/01/04 07:09:29;;;;;;;15.80;15.20;;;;;;;-0.89;100.00;99734.41;5050782;28;20466;-36
2024/01/04 07:11:58;;;;;;;15.63;14.93;;;;;;;-0.85;100.00;99737.56;5031829;28;20448;-37
2024/01/04 07:14:27;;;;;;;15.77;15.00;;;;;;;-0.92;100.00;99705.09;5036487;28;20467;-39
2024/01/04 07:16:55;;;;;;;16.30;15.70;;;;;;;-0.93;100.00;99733.09;5048958;28;20471;-39
2024/01/04 07:19:23;;;;;;;15.60;14.80;;;;;;;-0.95;100.00;99758.56;5041412;28;20502;-37
2024/01/04 07:21:51;;;;;;;15.80;14.93;;;;;;;-0.93;100.00;99790.66;5033503;28;20440;-37
2024/01/04 07:24:20;;;;;;;16.10;15.50;;;;;;;-0.93;100.00;99774.94;5041977;28;20435;-37
2024/01/04 07:26:48;;;;;;;15.40;14.70;;;;;;;-0.88;100.00;99775.31;5040413;28;20445;-37
2024/01/04 07:29:16;;;;;;;15.50;14.90;;;;;;;-0.94;100.00;99801.25;5041472;28;21037;-38
2024/01/04 07:31:46;;;;;;;15.83;15.33;;;;;;;-0.94;100.00;99794.22;5041327;28;20451;-36
2024/01/04 07:34:14;;;;;;;16.20;15.60;;;;;;;-0.96;100.00;99804.03;5033624;28;20462;-39
2024/01/04 07:36:42;;;;;;;16.93;16.33;;;;;;;-1.01;100.00;99810.66;5042083;28;20876;-42
2024/01/04 07:39:10;;;;;;;16.03;15.43;;;;;;;-1.11;100.00;99814.13;5046498;28;20482;-37
2024/01/04 07:41:37;;;;;;;15.93;15.10;;;;;;;-1.00;100.00;99820.16;5042047;28;20803;-36
2024/01/04 07:44:06;;;;;;;15.07;14.37;;;;;;;-0.98;100.00;99808.56;5047943;28;20439;-37
2024/01/04 07:46:34;;;;;;;15.90;14.93;;;;;;;-1.02;100.00;99830.78;5048787;28;20470;-39
2024/01/04 07:49:04;;;;;;;16.50;15.60;;;;;;;-0.98;100.00;99837.34;5047859;28;20490;-37
2024/01/04 07:51:32;;;;;;;16.67;15.67;;;;;;;-0.99;100.00;99851.44;5045599;28;20440;-39
2024/01/04 07:54:00;;;;;;;16.00;15.40;;;;;;;-1.07;100.00;99864.38;5031672;28;20432;-43
2024/01/04 07:56:28;;;;;;;16.70;15.80;;;;;;;-1.00;100.00;99862.84;5029246;28;20527;-36
2024/01/04 07:58:56;;;;;;;16.27;15.50;;;;;;;-0.98;100.00;99878.38;5029127;28;20464;-37
2024/01/04 08:01:24;;;;;;;17.23;16.20;;;;;;;-1.06;100.00;99867.81;5028186;28;20907;-39
2024/01/04 08:03:52;;;;;;;17.70;16.80;;;;;;;-1.15;100.00;99878.19;5037720;28;20446;-36
2024/01/04 08:06:21;;;;;;;16.43;15.73;;;;;;;-1.20;100.00;99895.28;5036717;28;20443;-39
2024/01/04 08:08:49;;;;;;;16.53;15.77;;;;;;;-1.05;100.00;99893.88;5028335;28;20465;-39
2024/01/04 08:11:17;;;;;;;16.60;15.90;;;;;;;-1.17;100.00;99887.16;5028009;28;20471;-37
2024/01/04 08:13:45;;;;;;;15.93;15.17;;;;;;;-1.24;100.00;99899.16;5029047;28;20957;-37
2024/01/04 08:16:13;;;;;;;15.70;15.00;;;;;;;-1.26;100.00;99896.69;5034072;28;20945;-36
2024/01/04 08:18:41;;;;;;;14.73;14.13;;;;;;;-1.22;100.00;99907.66;5045635;28;20459;-37
2024/01/04 08:21:10;;;;;;;15.10;14.50;;;;;;;-1.18;100.00;99914.28;5048817;28;20850;-35
2024/01/04 08:23:41;;;;;;;15.37;14.60;;;;;;;-1.20;100.00;99924.91;5048920;28;20431;-37
2024/01/04 08:26:10;;;;;;;16.03;15.23;;;;;;;-1.27;100.00;99941.28;5030113;28;20447;-41
2024/01/04 08:28:39;;;;;;;15.20;14.50;;;;;;;-1.32;100.00;99941.72;5036792;28;20883;-37
2024/01/04 08:31:07;;;;;;;16.27;15.60;;;;;;;-1.29;100.00;99943.22;5036457;28;20463;-36
2024/01/04 08:33:36;;;;;;;16.13;15.43;;;;;;;-1.29;100.00;99948.44;5035600;28;20460;-37
2024/01/04 08:36:05;;;;;;;16.77;16.07;;;;;;;-1.19;100.00;99962.31;5036257;28;20468;-37
2024/01/04 08:38:35;;;;;;;16.50;15.60;;;;;;;-1.22;100.00;99965.22;5029604;28;20475;-37
2024/01/04 08:41:05;;;;;;;15.63;14.93;;;;;;;-1.27;100.00;99972.66;5035281;28;20478;-37
2024/01/04 08:43:34;;;;;;;15.67;14.97;;;;;;;-1.20;100.00;99968.53;5027741;28;20847;-39
2024/01/04 08:46:02;;;;;;;17.10;16.13;;;;;;;-1.19;100.00;99985.88;5028095;28;20494;-36
2024/01/04 08:48:30;;;;;;;16.10;15.50;;;;;;;-1.14;100.00;99987.13;5032588;28;20569;-37
2024/01/04 08:50:59;;;;;;;17.20;16.40;;;;;;;-1.13;100.00;99998.38;5040217;28;21001;-37
2024/01/04 08:53:27;;;;;;;15.50;14.90;;;;;;;-1.08;100.00;99990.13;5035954;28;20523;-36
2024/01/04 08:55:55;;;;;;;15.23;14.40;;;;;;;-1.03;100.00;99993.97;5031918;28;20436;-39
2024/01/04 08:58:24;;;;;;;16.87;15.77;;;;;;;-1.02;100.00;99998.25;5027713;28;20546;-36
2024/01/04 09:00:52;;;;;;;16.70;15.90;;;;;;;-1.02;100.00;100010.50;5027311;28;20471;-39
2024/01/04 09:03:21;;;;;;;16.90;16.00;;;;;;;-1.02;100.00;100005.28;5029321;28;20436;-36
2024/01/04 09:05:50;;;;;;;15.93;15.17;;;;;;;-0.97;100.00;100010.91;5026714;28;20428;-38
2024/01/04 09:08:18;;;;;;;17.53;16.40;;;;;;;-0.92;100.00;100021.75;5041052;28;20459;-38
2024/01/04 09:10:47;;;;;;;17.50;16.60;;;;;;;-0.87;100.00;100017.78;5045921;28;20938;-36
2024/01/04 09:13:15;;;;;;;17.63;16.73;;;;;;;-0.79;100.00;100030.16;5030613;28;20463;-37
2024/01/04 09:15:45;;;;;;;18.00;17.20;;;;;;;-0.90;100.00;100043.41;5028324;28;20436;-37
2024/01/04 09:18:12;;;;;;;16.97;16.00;;;;;;;-0.82;100.00;100040.91;5039589;28;20459;-35
2024/01/04 09:20:41;;;;;;;17.17;16.03;;;;;;;-0.84;100.00;100048.06;5047860;28;20489;-36
2024/01/04 09:23:08;;;;;;;16.60;15.77;;;;;;;-0.86;100.00;100058.69;5038652;28;20509;-36
2024/01/04 09:25:36;;;;;;;17.07;16.27;;;;;;;-0.75;100.00;100058.53;5033457;28;20496;-36
2024/01/04 09:28:04;;;;;;;16.10;15.50;;;;;;;-0.74;100.00;100067.19;5043371;28;20981;-36
2024/01/04 09:30:32;;;;;;;17.00;16.00;;;;;;;-0.66;100.00;100090.91;5040330;28;20456;-36
2024/01/04 09:33:02;;;;;;;16.93;15.83;;;;;;;-0.70;100.00;100082.50;5046865;28;20551;-36
2024/01/04 09:35:30;;;;;;;16.20;15.50;;;;;;;-0.64;100.00;100088.97;5045671;28;20440;-38
2024/01/04 09:37:58;;;;;;;15.73;15.13;;;;;;;-0.59;100.00;100091.97;5030409;28;20464;-37
2024/01/04 09:40:25;;;;;;;15.53;14.93;;;;;;;-0.58;100.00;100099.69;5030149;28;20979;-36
2024/01/04 09:42:56;;;;;;;15.83;15.13;;;;;;;-0.54;100.00;100095.00;5031359;28;21220;-36
2024/01/04 09:45:29;;;;;;;16.53;15.83;;;;;;;-0.60;100.00;100117.31;5039306;28;20945;-35
2024/01/04 09:48:00;;;;;;;16.40;15.70;;;;;;;-0.69;100.00;100119.97;5042920;28;20451;-36
2024/01/04 09:50:30;;;;;;;16.53;15.83;;;;;;;-0.61;100.00;100117.47;5052424;28;20455;-36
2024/01/04 09:52:59;;;;;;;16.03;15.23;;;;;;;-0.53;100.00;100130.69;5044079;28;20499;-36
2024/01/04 09:55:28;;;;;;;16.53;15.73;;;;;;;-0.71;100.00;100143.66;5036976;28;20991;-36
2024/01/04 09:57:56;;;;;;;18.37;17.20;;;;;;;-0.67;100.00;100147.66;5039831;28;20989;-37
2024/01/04 10:00:24;;;;;;;16.37;15.57;;;;;;;-0.65;100.00;100135.25;5036137;28;20493;-36
2024/01/04 10:02:53;;;;;;;16.40;15.80;;;;;;;-0.68;100.00;100147.78;5045143;28;20450;-35
2024/01/04 10:05:22;;;;;;;16.87;16.07;;;;;;;-0.66;100.00;100166.84;5040474;28;20434;-38
2024/01/04 10:08:01;;;;;;;16.50;15.80;;;;;;;-0.68;100.00;100156.47;5042743;28;20460;-37
2024/01/04 10:10:36;;;;;;;16.70;15.93;;;;;;;-0.68;100.00;100160.88;5039061;28;20470;-36
2024/01/04 10:13:05;;;;;;;16.53;15.83;;;;;;;-0.68;100.00;100164.34;5042963;28;20502;-35
2024/01/04 10:15:36;;;;;;;16.13;15.43;;;;;;;-0.74;100.00;100177.16;5032025;28;20429;-36
2024/01/04 10:18:08;;;;;;;16.70;16.00;;;;;;;-0.89;100.00;100181.97;5032416;28;20456;-37
2024/01/04 10:20:36;;;;;;;16.77;16.07;;;;;;;-0.74;100.00;100187.63;5033728;28;20459;-35
2024/01/04 10:23:07;;;;;;;17.43;16.63;;;;;;;-0.80;100.00;100190.78;5032733;28;20515;-36
2024/01/04 10:25:35;;;;;;;16.00;15.40;;;;;;;-0.73;100.00;100195.34;5033054;28;20441;-36
2024/01/04 10:28:03;;;;;;;16.07;15.30;;;;;;;-0.76;100.00;100193.00;5031101;28;20494;-36
2024/01/04 10:30:30;;;;;;;16.70;15.90;;;;;;;-0.65;100.00;100190.25;5041552;28;20495;-35
2024/01/04 10:32:58;;;;;;;15.87;15.17;;;;;;;-0.63;100.00;100190.13;5035436;28;20801;-38
2024/01/04 10:35:29;;;;;;;16.20;15.50;;;;;;;-0.59;100.00;100199.34;5036915;28;20463;-35
2024/01/04 10:37:59;;;;;;;16.33;15.40;;;;;;;-0.59;100.00;100208.03;5039957;28;20483;-36
2024/01/04 10:40:28;;;;;;;16.20;15.17;;;;;;;-0.56;100.00;100209.53;5033025;28;20491;-37
2024/01/04 10:43:01;;;;;;;15.83;15.10;;;;;;;-0.53;100.00;100211.03;5039172;28;21169;-35
2024/01/04 10:45:30;;;;;;;16.20;15.50;;;;;;;-0.57;100.00;100211.31;5046443;28;20439;-35
2024/01/04 10:47:59;;;;;;;16.67;15.67;;;;;;;-0.51;100.00;100215.19;5054723;28;20546;-36
2024/01/04 10:50:31;;;;;;;17.03;15.60;;;;;;;-0.58;100.00;100222.78;5030579;28;20502;-35
2024/01/04 10:53:03;;;;;;;17.67;16.87;;;;;;;-0.56;100.00;100210.38;5051014;28;20442;-35
2024/01/04 10:55:33;;;;;;;19.67;18.33;;;;;;;-0.53;100.00;100230.22;5041919;28;20443;-36
2024/01/04 10:58:02;;;;;;;18.93;17.50;;;;;;;-0.44;100.00;100234.63;5033297;28;21018;-35
2024/01/04 11:00:32;;;;;;;18.70;17.80;;;;;;;-0.45;100.00;100242.63;5038572;28;20518;-35
2024/01/04 11:03:03;;;;;;;17.33;16.43;;;;;;;-0.41;100.00;100251.84;5033136;28;20569;-37
2024/01/04 11:05:33;;;;;;;16.73;15.90;;;;;;;-0.45;100.00;100242.63;5043560;28;20974;-35
2024/01/04 11:08:02;;;;;;;17.90;16.93;;;;;;;-0.35;100.00;100249.50;5048290;28;20478;-36
2024/01/04 11:10:32;;;;;;;19.07;18.27;;;;;;;-0.39;100.00;100263.03;5051199;28;20467;-35
2024/01/04 11:13:02;;;;;;;17.70;16.97;;;;;;;-0.33;100.00;100257.25;5052329;28;20485;-37
2024/01/04 11:15:31;;;;;;;16.53;15.73;;;;;;;-0.33;100.00;100259.84;5031065;28;20870;-37